sensor_id;sensor_type;location;lat;lon;timestamp;temperature;humidity
74540;SHT31;66042;51.090;-115.340;2023-05-13T00:01:09;43.89;9.98
74540;SHT31;66042;51.090;-115.340;2023-05-13T00:03:36;43.54;10.17
74540;SHT31;66042;51.090;-115.340;2023-05-13T00:06:03;42.85;10.38
74540;SHT31;66042;51.090;-115.340;2023-05-13T00:08:29;42.32;10.39
74540;SHT31;66042;51.090;-115.340;2023-05-13T00:10:58;42.16;10.68
74540;SHT31;66042;51.090;-115.340;2023-05-13T00:13:25;41.18;10.59
74540;SHT31;66042;51.090;-115.340;2023-05-13T00:15:52;40.26;10.88
74540;SHT31;66042;51.090;-115.340;2023-05-13T00:18:19;39.95;10.66
74540;SHT31;66042;51.090;-115.340;2023-05-13T00:20:45;40.04;11.07
74540;SHT31;66042;51.090;-115.340;2023-05-13T00:23:14;40.12;11.35
74540;SHT31;66042;51.090;-115.340;2023-05-13T00:25:41;39.27;11.24
74540;SHT31;66042;51.090;-115.340;2023-05-13T00:28:11;38.07;11.87
74540;SHT31;66042;51.090;-115.340;2023-05-13T00:30:42;36.89;13.32
74540;SHT31;66042;51.090;-115.340;2023-05-13T00:33:10;36.09;13.35
74540;SHT31;66042;51.090;-115.340;2023-05-13T00:35:37;36.23;12.47
74540;SHT31;66042;51.090;-115.340;2023-05-13T00:38:03;36.40;12.59
74540;SHT31;66042;51.090;-115.340;2023-05-13T00:40:31;35.93;13.12
74540;SHT31;66042;51.090;-115.340;2023-05-13T00:43:04;35.18;13.89
74540;SHT31;66042;51.090;-115.340;2023-05-13T00:45:31;34.52;14.14
74540;SHT31;66042;51.090;-115.340;2023-05-13T00:47:58;33.80;14.22
74540;SHT31;66042;51.090;-115.340;2023-05-13T00:50:25;33.16;14.95
74540;SHT31;66042;51.090;-115.340;2023-05-13T00:52:52;32.66;15.52
74540;SHT31;66042;51.090;-115.340;2023-05-13T00:55:23;32.17;15.38
74540;SHT31;66042;51.090;-115.340;2023-05-13T00:57:50;31.64;15.61
74540;SHT31;66042;51.090;-115.340;2023-05-13T01:00:17;31.25;15.72
74540;SHT31;66042;51.090;-115.340;2023-05-13T01:02:49;30.89;16.16
74540;SHT31;66042;51.090;-115.340;2023-05-13T01:05:39;30.57;16.45
74540;SHT31;66042;51.090;-115.340;2023-05-13T01:11:23;29.58;17.54
74540;SHT31;66042;51.090;-115.340;2023-05-13T01:14:18;29.20;18.00
74540;SHT31;66042;51.090;-115.340;2023-05-13T01:17:01;28.78;18.05
74540;SHT31;66042;51.090;-115.340;2023-05-13T01:19:48;28.38;18.43
74540;SHT31;66042;51.090;-115.340;2023-05-13T01:22:22;28.05;18.55
74540;SHT31;66042;51.090;-115.340;2023-05-13T01:24:50;27.81;19.43
74540;SHT31;66042;51.090;-115.340;2023-05-13T01:27:16;28.16;19.32
74540;SHT31;66042;51.090;-115.340;2023-05-13T01:29:44;28.41;19.13
74540;SHT31;66042;51.090;-115.340;2023-05-13T01:32:13;28.13;18.93
74540;SHT31;66042;51.090;-115.340;2023-05-13T01:34:42;27.80;19.28
74540;SHT31;66042;51.090;-115.340;2023-05-13T01:37:11;27.52;19.54
74540;SHT31;66042;51.090;-115.340;2023-05-13T01:39:38;27.24;19.83
74540;SHT31;66042;51.090;-115.340;2023-05-13T01:42:06;26.93;19.99
74540;SHT31;66042;51.090;-115.340;2023-05-13T01:44:33;26.62;20.30
74540;SHT31;66042;51.090;-115.340;2023-05-13T01:47:00;26.36;20.47
74540;SHT31;66042;51.090;-115.340;2023-05-13T01:49:27;26.03;20.82
74540;SHT31;66042;51.090;-115.340;2023-05-13T01:51:54;25.76;21.07
74540;SHT31;66042;51.090;-115.340;2023-05-13T01:54:22;25.48;21.20
74540;SHT31;66042;51.090;-115.340;2023-05-13T01:56:50;25.22;21.53
74540;SHT31;66042;51.090;-115.340;2023-05-13T01:59:17;24.97;21.92
74540;SHT31;66042;51.090;-115.340;2023-05-13T02:01:44;24.77;22.32
74540;SHT31;66042;51.090;-115.340;2023-05-13T02:04:11;24.56;22.23
74540;SHT31;66042;51.090;-115.340;2023-05-13T02:06:38;24.30;22.33
74540;SHT31;66042;51.090;-115.340;2023-05-13T02:09:05;24.08;23.15
74540;SHT31;66042;51.090;-115.340;2023-05-13T02:11:32;23.77;23.25
74540;SHT31;66042;51.090;-115.340;2023-05-13T02:14:00;23.55;24.46
74540;SHT31;66042;51.090;-115.340;2023-05-13T02:16:28;23.39;24.56
74540;SHT31;66042;51.090;-115.340;2023-05-13T02:18:56;23.24;24.83
74540;SHT31;66042;51.090;-115.340;2023-05-13T02:21:23;23.08;24.53
74540;SHT31;66042;51.090;-115.340;2023-05-13T02:23:49;22.87;24.61
74540;SHT31;66042;51.090;-115.340;2023-05-13T02:26:18;22.75;25.41
74540;SHT31;66042;51.090;-115.340;2023-05-13T02:28:45;22.59;26.02
74540;SHT31;66042;51.090;-115.340;2023-05-13T02:31:13;22.41;26.04
74540;SHT31;66042;51.090;-115.340;2023-05-13T02:33:39;22.25;26.36
74540;SHT31;66042;51.090;-115.340;2023-05-13T02:36:06;22.14;27.29
74540;SHT31;66042;51.090;-115.340;2023-05-13T02:38:33;22.01;27.32
74540;SHT31;66042;51.090;-115.340;2023-05-13T02:41:00;21.88;27.38
74540;SHT31;66042;51.090;-115.340;2023-05-13T02:43:28;21.75;27.70
74540;SHT31;66042;51.090;-115.340;2023-05-13T02:45:55;21.58;28.05
74540;SHT31;66042;51.090;-115.340;2023-05-13T02:48:22;21.39;27.69
74540;SHT31;66042;51.090;-115.340;2023-05-13T02:50:50;21.27;27.84
74540;SHT31;66042;51.090;-115.340;2023-05-13T02:53:17;21.16;28.72
74540;SHT31;66042;51.090;-115.340;2023-05-13T02:55:44;21.02;28.94
74540;SHT31;66042;51.090;-115.340;2023-05-13T02:58:11;20.87;29.22
74540;SHT31;66042;51.090;-115.340;2023-05-13T03:00:38;20.72;29.44
74540;SHT31;66042;51.090;-115.340;2023-05-13T03:03:05;20.61;29.62
74540;SHT31;66042;51.090;-115.340;2023-05-13T03:05:32;20.50;29.69
74540;SHT31;66042;51.090;-115.340;2023-05-13T03:08:00;20.39;30.08
74540;SHT31;66042;51.090;-115.340;2023-05-13T03:10:27;20.28;30.52
74540;SHT31;66042;51.090;-115.340;2023-05-13T03:12:54;20.17;30.78
74540;SHT31;66042;51.090;-115.340;2023-05-13T03:15:21;20.02;31.09
74540;SHT31;66042;51.090;-115.340;2023-05-13T03:17:48;19.91;31.41
74540;SHT31;66042;51.090;-115.340;2023-05-13T03:20:14;19.77;31.80
74540;SHT31;66042;51.090;-115.340;2023-05-13T03:22:42;19.64;32.40
74540;SHT31;66042;51.090;-115.340;2023-05-13T03:25:09;19.54;32.68
74540;SHT31;66042;51.090;-115.340;2023-05-13T03:27:36;19.43;33.01
74540;SHT31;66042;51.090;-115.340;2023-05-13T03:30:04;19.30;33.03
74540;SHT31;66042;51.090;-115.340;2023-05-13T03:32:31;19.18;33.31
74540;SHT31;66042;51.090;-115.340;2023-05-13T03:34:59;19.07;33.25
74540;SHT31;66042;51.090;-115.340;2023-05-13T03:37:26;18.94;33.47
74540;SHT31;66042;51.090;-115.340;2023-05-13T03:39:53;18.81;33.88
74540;SHT31;66042;51.090;-115.340;2023-05-13T03:42:20;18.72;34.11
74540;SHT31;66042;51.090;-115.340;2023-05-13T03:44:48;18.63;34.08
74540;SHT31;66042;51.090;-115.340;2023-05-13T03:47:15;18.53;34.29
74540;SHT31;66042;51.090;-115.340;2023-05-13T03:49:42;18.40;34.60
74540;SHT31;66042;51.090;-115.340;2023-05-13T03:52:12;18.29;34.76
74540;SHT31;66042;51.090;-115.340;2023-05-13T03:54:39;18.18;35.00
74540;SHT31;66042;51.090;-115.340;2023-05-13T03:57:06;18.08;35.23
74540;SHT31;66042;51.090;-115.340;2023-05-13T03:59:33;17.98;35.37
74540;SHT31;66042;51.090;-115.340;2023-05-13T04:02:00;17.89;35.54
74540;SHT31;66042;51.090;-115.340;2023-05-13T04:04:27;17.81;35.67
74540;SHT31;66042;51.090;-115.340;2023-05-13T04:06:53;17.75;35.71
74540;SHT31;66042;51.090;-115.340;2023-05-13T04:09:21;17.68;36.03
74540;SHT31;66042;51.090;-115.340;2023-05-13T04:11:48;17.60;36.25
74540;SHT31;66042;51.090;-115.340;2023-05-13T04:14:15;17.50;36.24
74540;SHT31;66042;51.090;-115.340;2023-05-13T04:16:42;17.44;36.40
74540;SHT31;66042;51.090;-115.340;2023-05-13T04:19:09;17.36;36.63
74540;SHT31;66042;51.090;-115.340;2023-05-13T04:21:37;17.28;36.83
74540;SHT31;66042;51.090;-115.340;2023-05-13T04:24:04;17.21;37.09
74540;SHT31;66042;51.090;-115.340;2023-05-13T04:26:32;17.14;37.32
74540;SHT31;66042;51.090;-115.340;2023-05-13T04:28:59;17.07;37.48
74540;SHT31;66042;51.090;-115.340;2023-05-13T04:31:26;16.98;37.69
74540;SHT31;66042;51.090;-115.340;2023-05-13T04:33:52;16.91;37.78
74540;SHT31;66042;51.090;-115.340;2023-05-13T04:36:19;16.82;37.89
74540;SHT31;66042;51.090;-115.340;2023-05-13T04:38:46;16.73;38.05
74540;SHT31;66042;51.090;-115.340;2023-05-13T04:41:14;16.67;38.20
74540;SHT31;66042;51.090;-115.340;2023-05-13T04:43:41;16.58;38.33
74540;SHT31;66042;51.090;-115.340;2023-05-13T04:46:08;16.50;38.48
74540;SHT31;66042;51.090;-115.340;2023-05-13T04:48:34;16.43;38.74
74540;SHT31;66042;51.090;-115.340;2023-05-13T04:51:01;16.38;38.72
74540;SHT31;66042;51.090;-115.340;2023-05-13T04:53:28;16.33;39.07
74540;SHT31;66042;51.090;-115.340;2023-05-13T04:55:55;16.29;39.38
74540;SHT31;66042;51.090;-115.340;2023-05-13T04:58:26;16.24;39.55
74540;SHT31;66042;51.090;-115.340;2023-05-13T05:00:53;16.17;39.79
74540;SHT31;66042;51.090;-115.340;2023-05-13T05:03:22;16.11;39.87
74540;SHT31;66042;51.090;-115.340;2023-05-13T05:05:49;16.06;39.96
74540;SHT31;66042;51.090;-115.340;2023-05-13T05:08:16;15.99;40.14
74540;SHT31;66042;51.090;-115.340;2023-05-13T05:10:43;15.94;40.42
74540;SHT31;66042;51.090;-115.340;2023-05-13T05:13:10;15.89;40.67
74540;SHT31;66042;51.090;-115.340;2023-05-13T05:15:37;15.82;40.74
74540;SHT31;66042;51.090;-115.340;2023-05-13T05:18:04;15.73;40.73
74540;SHT31;66042;51.090;-115.340;2023-05-13T05:20:31;15.68;40.68
74540;SHT31;66042;51.090;-115.340;2023-05-13T05:22:59;15.65;40.97
74540;SHT31;66042;51.090;-115.340;2023-05-13T05:25:26;15.60;41.36
74540;SHT31;66042;51.090;-115.340;2023-05-13T05:27:53;15.54;41.47
74540;SHT31;66042;51.090;-115.340;2023-05-13T05:30:21;15.47;41.71
74540;SHT31;66042;51.090;-115.340;2023-05-13T05:32:48;15.33;42.66
74540;SHT31;66042;51.090;-115.340;2023-05-13T05:35:16;15.19;43.13
74540;SHT31;66042;51.090;-115.340;2023-05-13T05:37:44;15.13;43.54
74540;SHT31;66042;51.090;-115.340;2023-05-13T05:40:11;15.06;43.77
74540;SHT31;66042;51.090;-115.340;2023-05-13T05:42:41;15.02;44.10
74540;SHT31;66042;51.090;-115.340;2023-05-13T05:45:08;14.96;44.23
74540;SHT31;66042;51.090;-115.340;2023-05-13T05:47:35;14.89;44.40
74540;SHT31;66042;51.090;-115.340;2023-05-13T05:50:03;14.84;44.64
74540;SHT31;66042;51.090;-115.340;2023-05-13T05:52:30;14.76;44.87
74540;SHT31;66042;51.090;-115.340;2023-05-13T05:54:57;14.68;44.99
74540;SHT31;66042;51.090;-115.340;2023-05-13T05:57:24;14.57;45.19
74540;SHT31;66042;51.090;-115.340;2023-05-13T05:59:52;14.46;45.55
74540;SHT31;66042;51.090;-115.340;2023-05-13T06:02:19;14.36;45.82
74540;SHT31;66042;51.090;-115.340;2023-05-13T06:04:46;14.27;45.95
74540;SHT31;66042;51.090;-115.340;2023-05-13T06:07:13;14.21;46.12
74540;SHT31;66042;51.090;-115.340;2023-05-13T06:09:40;14.15;46.27
74540;SHT31;66042;51.090;-115.340;2023-05-13T06:12:09;14.05;46.46
74540;SHT31;66042;51.090;-115.340;2023-05-13T06:14:36;13.94;46.69
74540;SHT31;66042;51.090;-115.340;2023-05-13T06:17:03;13.85;46.93
74540;SHT31;66042;51.090;-115.340;2023-05-13T06:19:31;13.77;47.24
74540;SHT31;66042;51.090;-115.340;2023-05-13T06:21:58;13.65;47.40
74540;SHT31;66042;51.090;-115.340;2023-05-13T06:24:25;13.57;47.63
74540;SHT31;66042;51.090;-115.340;2023-05-13T06:26:52;13.49;47.83
74540;SHT31;66042;51.090;-115.340;2023-05-13T06:29:19;13.40;48.13
74540;SHT31;66042;51.090;-115.340;2023-05-13T06:31:46;13.29;48.32
74540;SHT31;66042;51.090;-115.340;2023-05-13T06:34:19;13.22;48.53
74540;SHT31;66042;51.090;-115.340;2023-05-13T06:36:46;13.16;48.74
74540;SHT31;66042;51.090;-115.340;2023-05-13T06:39:13;13.07;49.00
74540;SHT31;66042;51.090;-115.340;2023-05-13T06:41:40;13.00;49.23
74540;SHT31;66042;51.090;-115.340;2023-05-13T06:44:07;12.95;49.31
74540;SHT31;66042;51.090;-115.340;2023-05-13T06:46:35;12.88;49.41
74540;SHT31;66042;51.090;-115.340;2023-05-13T06:49:02;12.80;49.48
74540;SHT31;66042;51.090;-115.340;2023-05-13T06:51:29;12.70;49.60
74540;SHT31;66042;51.090;-115.340;2023-05-13T06:53:57;12.63;49.65
74540;SHT31;66042;51.090;-115.340;2023-05-13T06:56:25;12.54;49.80
74540;SHT31;66042;51.090;-115.340;2023-05-13T06:58:53;12.49;49.95
74540;SHT31;66042;51.090;-115.340;2023-05-13T07:01:21;12.45;50.12
74540;SHT31;66042;51.090;-115.340;2023-05-13T07:03:48;12.40;50.25
74540;SHT31;66042;51.090;-115.340;2023-05-13T07:06:15;12.35;50.44
74540;SHT31;66042;51.090;-115.340;2023-05-13T07:08:42;12.27;50.59
74540;SHT31;66042;51.090;-115.340;2023-05-13T07:11:09;12.20;50.83
74540;SHT31;66042;51.090;-115.340;2023-05-13T07:13:36;12.16;50.92
74540;SHT31;66042;51.090;-115.340;2023-05-13T07:16:03;12.09;50.94
74540;SHT31;66042;51.090;-115.340;2023-05-13T07:18:31;12.02;51.12
74540;SHT31;66042;51.090;-115.340;2023-05-13T07:20:58;11.94;51.33
74540;SHT31;66042;51.090;-115.340;2023-05-13T07:23:25;11.86;51.46
74540;SHT31;66042;51.090;-115.340;2023-05-13T07:25:52;11.79;51.72
74540;SHT31;66042;51.090;-115.340;2023-05-13T07:28:19;11.72;51.85
74540;SHT31;66042;51.090;-115.340;2023-05-13T07:30:46;11.66;51.97
74540;SHT31;66042;51.090;-115.340;2023-05-13T07:33:13;11.63;52.09
74540;SHT31;66042;51.090;-115.340;2023-05-13T07:35:40;11.58;52.17
74540;SHT31;66042;51.090;-115.340;2023-05-13T07:38:08;11.53;52.26
74540;SHT31;66042;51.090;-115.340;2023-05-13T07:40:36;11.49;52.42
74540;SHT31;66042;51.090;-115.340;2023-05-13T07:43:03;11.44;52.53
74540;SHT31;66042;51.090;-115.340;2023-05-13T07:45:30;11.39;52.65
74540;SHT31;66042;51.090;-115.340;2023-05-13T07:48:00;11.33;52.78
74540;SHT31;66042;51.090;-115.340;2023-05-13T07:50:28;11.26;52.93
74540;SHT31;66042;51.090;-115.340;2023-05-13T07:52:54;11.21;53.03
74540;SHT31;66042;51.090;-115.340;2023-05-13T07:55:22;11.15;53.14
74540;SHT31;66042;51.090;-115.340;2023-05-13T07:57:49;11.08;53.23
74540;SHT31;66042;51.090;-115.340;2023-05-13T08:00:16;11.04;53.30
74540;SHT31;66042;51.090;-115.340;2023-05-13T08:02:43;10.98;53.30
74540;SHT31;66042;51.090;-115.340;2023-05-13T08:05:10;10.94;53.30
74540;SHT31;66042;51.090;-115.340;2023-05-13T08:07:37;10.89;53.19
74540;SHT31;66042;51.090;-115.340;2023-05-13T08:10:04;10.85;53.25
74540;SHT31;66042;51.090;-115.340;2023-05-13T08:12:32;10.83;53.32
74540;SHT31;66042;51.090;-115.340;2023-05-13T08:14:59;10.79;53.40
74540;SHT31;66042;51.090;-115.340;2023-05-13T08:17:30;10.76;53.57
74540;SHT31;66042;51.090;-115.340;2023-05-13T08:20:00;10.72;53.65
74540;SHT31;66042;51.090;-115.340;2023-05-13T08:22:27;10.68;53.82
74540;SHT31;66042;51.090;-115.340;2023-05-13T08:24:54;10.66;53.91
74540;SHT31;66042;51.090;-115.340;2023-05-13T08:27:21;10.63;53.98
74540;SHT31;66042;51.090;-115.340;2023-05-13T08:29:49;10.56;54.04
74540;SHT31;66042;51.090;-115.340;2023-05-13T08:32:16;10.50;54.11
74540;SHT31;66042;51.090;-115.340;2023-05-13T08:34:43;10.45;54.16
74540;SHT31;66042;51.090;-115.340;2023-05-13T08:37:10;10.41;54.24
74540;SHT31;66042;51.090;-115.340;2023-05-13T08:39:37;10.37;54.31
74540;SHT31;66042;51.090;-115.340;2023-05-13T08:42:04;10.34;54.18
74540;SHT31;66042;51.090;-115.340;2023-05-13T08:44:36;10.31;54.23
74540;SHT31;66042;51.090;-115.340;2023-05-13T08:47:13;10.29;54.32
74540;SHT31;66042;51.090;-115.340;2023-05-13T08:49:52;10.26;54.41
74540;SHT31;66042;51.090;-115.340;2023-05-13T08:52:19;10.22;54.45
74540;SHT31;66042;51.090;-115.340;2023-05-13T08:54:48;10.19;54.54
74540;SHT31;66042;51.090;-115.340;2023-05-13T08:57:15;10.16;54.57
74540;SHT31;66042;51.090;-115.340;2023-05-13T08:59:42;10.11;54.68
74540;SHT31;66042;51.090;-115.340;2023-05-13T09:02:10;10.05;54.81
74540;SHT31;66042;51.090;-115.340;2023-05-13T09:04:37;9.99;54.90
74540;SHT31;66042;51.090;-115.340;2023-05-13T09:07:06;9.94;55.03
74540;SHT31;66042;51.090;-115.340;2023-05-13T09:09:35;9.88;55.20
74540;SHT31;66042;51.090;-115.340;2023-05-13T09:12:02;9.83;55.29
74540;SHT31;66042;51.090;-115.340;2023-05-13T09:14:30;9.77;55.30
74540;SHT31;66042;51.090;-115.340;2023-05-13T09:16:58;9.72;55.40
74540;SHT31;66042;51.090;-115.340;2023-05-13T09:19:26;9.71;55.46
74540;SHT31;66042;51.090;-115.340;2023-05-13T09:21:54;9.66;55.54
74540;SHT31;66042;51.090;-115.340;2023-05-13T09:24:22;9.61;55.43
74540;SHT31;66042;51.090;-115.340;2023-05-13T09:26:49;9.56;55.61
74540;SHT31;66042;51.090;-115.340;2023-05-13T09:29:21;9.54;55.60
74540;SHT31;66042;51.090;-115.340;2023-05-13T09:31:54;9.52;55.69
74540;SHT31;66042;51.090;-115.340;2023-05-13T09:34:25;9.49;55.77
74540;SHT31;66042;51.090;-115.340;2023-05-13T09:39:31;9.43;55.88
74540;SHT31;66042;51.090;-115.340;2023-05-13T09:42:14;9.39;55.84
74540;SHT31;66042;51.090;-115.340;2023-05-13T09:44:43;9.34;56.00
74540;SHT31;66042;51.090;-115.340;2023-05-13T09:47:14;9.30;56.11
74540;SHT31;66042;51.090;-115.340;2023-05-13T09:49:43;9.27;56.15
74540;SHT31;66042;51.090;-115.340;2023-05-13T09:52:17;9.23;56.18
74540;SHT31;66042;51.090;-115.340;2023-05-13T09:54:47;9.21;56.24
74540;SHT31;66042;51.090;-115.340;2023-05-13T09:57:14;9.18;56.31
74540;SHT31;66042;51.090;-115.340;2023-05-13T09:59:41;9.14;56.46
74540;SHT31;66042;51.090;-115.340;2023-05-13T10:02:08;9.14;56.59
74540;SHT31;66042;51.090;-115.340;2023-05-13T10:04:39;9.11;56.69
74540;SHT31;66042;51.090;-115.340;2023-05-13T10:07:07;9.05;56.73
74540;SHT31;66042;51.090;-115.340;2023-05-13T10:09:37;9.02;56.87
74540;SHT31;66042;51.090;-115.340;2023-05-13T10:12:08;8.99;57.04
74540;SHT31;66042;51.090;-115.340;2023-05-13T10:14:39;8.97;57.17
74540;SHT31;66042;51.090;-115.340;2023-05-13T10:17:08;8.93;57.32
74540;SHT31;66042;51.090;-115.340;2023-05-13T10:19:36;8.89;57.48
74540;SHT31;66042;51.090;-115.340;2023-05-13T10:22:03;8.87;57.45
74540;SHT31;66042;51.090;-115.340;2023-05-13T10:24:31;8.82;57.47
74540;SHT31;66042;51.090;-115.340;2023-05-13T10:27:03;8.80;57.53
74540;SHT31;66042;51.090;-115.340;2023-05-13T10:29:33;8.76;57.50
74540;SHT31;66042;51.090;-115.340;2023-05-13T10:32:05;8.73;57.59
74540;SHT31;66042;51.090;-115.340;2023-05-13T10:34:33;8.70;57.61
74540;SHT31;66042;51.090;-115.340;2023-05-13T10:42:40;8.56;57.81
74540;SHT31;66042;51.090;-115.340;2023-05-13T10:45:34;8.50;57.90
74540;SHT31;66042;51.090;-115.340;2023-05-13T10:48:07;8.46;57.95
74540;SHT31;66042;51.090;-115.340;2023-05-13T10:50:38;8.42;58.11
74540;SHT31;66042;51.090;-115.340;2023-05-13T10:53:08;8.39;58.21
74540;SHT31;66042;51.090;-115.340;2023-05-13T10:55:45;8.35;58.38
74540;SHT31;66042;51.090;-115.340;2023-05-13T10:58:18;8.30;58.46
74540;SHT31;66042;51.090;-115.340;2023-05-13T11:00:48;8.26;58.54
74540;SHT31;66042;51.090;-115.340;2023-05-13T11:05:57;8.23;58.66
74540;SHT31;66042;51.090;-115.340;2023-05-13T11:08:40;8.24;58.55
74540;SHT31;66042;51.090;-115.340;2023-05-13T11:19:27;8.20;58.34
74540;SHT31;66042;51.090;-115.340;2023-05-13T11:22:04;8.15;58.40
74540;SHT31;66042;51.090;-115.340;2023-05-13T11:24:35;8.11;58.38
74540;SHT31;66042;51.090;-115.340;2023-05-13T11:27:12;8.08;58.33
74540;SHT31;66042;51.090;-115.340;2023-05-13T11:29:47;8.04;58.35
74540;SHT31;66042;51.090;-115.340;2023-05-13T11:35:21;7.97;58.48
74540;SHT31;66042;51.090;-115.340;2023-05-13T11:37:52;7.94;58.46
74540;SHT31;66042;51.090;-115.340;2023-05-13T11:40:30;7.92;58.52
74540;SHT31;66042;51.090;-115.340;2023-05-13T11:43:02;7.91;58.59
74540;SHT31;66042;51.090;-115.340;2023-05-13T11:45:31;7.87;58.59
74540;SHT31;66042;51.090;-115.340;2023-05-13T11:48:23;7.85;58.59
74540;SHT31;66042;51.090;-115.340;2023-05-13T11:50:50;7.83;58.49
74540;SHT31;66042;51.090;-115.340;2023-05-13T11:53:21;7.80;58.49
74540;SHT31;66042;51.090;-115.340;2023-05-13T11:55:48;7.80;58.42
74540;SHT31;66042;51.090;-115.340;2023-05-13T11:58:16;7.79;58.41
74540;SHT31;66042;51.090;-115.340;2023-05-13T12:00:46;7.77;58.43
74540;SHT31;66042;51.090;-115.340;2023-05-13T12:03:13;7.71;58.45
74540;SHT31;66042;51.090;-115.340;2023-05-13T12:05:40;7.70;58.44
74540;SHT31;66042;51.090;-115.340;2023-05-13T12:08:08;7.72;58.41
74540;SHT31;66042;51.090;-115.340;2023-05-13T12:10:45;7.71;58.12
74540;SHT31;66042;51.090;-115.340;2023-05-13T12:13:12;7.71;58.10
74540;SHT31;66042;51.090;-115.340;2023-05-13T12:15:40;7.73;58.13
74540;SHT31;66042;51.090;-115.340;2023-05-13T12:18:07;7.74;57.93
74540;SHT31;66042;51.090;-115.340;2023-05-13T12:20:34;7.69;57.76
74540;SHT31;66042;51.090;-115.340;2023-05-13T12:23:02;7.66;57.96
74540;SHT31;66042;51.090;-115.340;2023-05-13T12:25:40;7.68;58.20
74540;SHT31;66042;51.090;-115.340;2023-05-13T12:28:16;7.67;58.01
74540;SHT31;66042;51.090;-115.340;2023-05-13T12:33:25;7.62;57.79
74540;SHT31;66042;51.090;-115.340;2023-05-13T12:36:14;7.61;57.77
74540;SHT31;66042;51.090;-115.340;2023-05-13T12:39:03;7.64;58.13
74540;SHT31;66042;51.090;-115.340;2023-05-13T12:41:36;7.64;58.30
74540;SHT31;66042;51.090;-115.340;2023-05-13T12:44:23;7.64;58.18
74540;SHT31;66042;51.090;-115.340;2023-05-13T12:46:51;7.61;58.36
74540;SHT31;66042;51.090;-115.340;2023-05-13T12:49:24;7.59;58.40
74540;SHT31;66042;51.090;-115.340;2023-05-13T12:51:51;7.59;58.41
74540;SHT31;66042;51.090;-115.340;2023-05-13T12:54:20;7.57;58.36
74540;SHT31;66042;51.090;-115.340;2023-05-13T12:56:47;7.57;58.41
74540;SHT31;66042;51.090;-115.340;2023-05-13T12:59:14;7.57;58.40
74540;SHT31;66042;51.090;-115.340;2023-05-13T13:01:43;7.55;58.42
74540;SHT31;66042;51.090;-115.340;2023-05-13T13:04:12;7.52;58.45
74540;SHT31;66042;51.090;-115.340;2023-05-13T13:06:41;7.48;58.67
74540;SHT31;66042;51.090;-115.340;2023-05-13T13:09:07;7.49;58.71
74540;SHT31;66042;51.090;-115.340;2023-05-13T13:11:34;7.48;58.73
74540;SHT31;66042;51.090;-115.340;2023-05-13T13:14:01;7.46;58.49
74540;SHT31;66042;51.090;-115.340;2023-05-13T13:16:28;7.45;58.62
74540;SHT31;66042;51.090;-115.340;2023-05-13T13:18:55;7.49;58.65
74540;SHT31;66042;51.090;-115.340;2023-05-13T13:21:23;7.50;58.69
74540;SHT31;66042;51.090;-115.340;2023-05-13T13:23:51;7.53;58.68
74540;SHT31;66042;51.090;-115.340;2023-05-13T13:26:17;7.52;58.70
74540;SHT31;66042;51.090;-115.340;2023-05-13T13:28:45;7.51;58.55
74540;SHT31;66042;51.090;-115.340;2023-05-13T13:31:11;7.50;58.61
74540;SHT31;66042;51.090;-115.340;2023-05-13T13:33:38;7.51;58.57
74540;SHT31;66042;51.090;-115.340;2023-05-13T13:36:05;7.51;58.51
74540;SHT31;66042;51.090;-115.340;2023-05-13T13:38:32;7.52;58.59
74540;SHT31;66042;51.090;-115.340;2023-05-13T13:40:59;7.53;58.63
74540;SHT31;66042;51.090;-115.340;2023-05-13T13:43:26;7.52;58.49
74540;SHT31;66042;51.090;-115.340;2023-05-13T13:45:53;7.50;58.49
74540;SHT31;66042;51.090;-115.340;2023-05-13T13:48:20;7.49;58.43
74540;SHT31;66042;51.090;-115.340;2023-05-13T13:50:47;7.51;58.38
74540;SHT31;66042;51.090;-115.340;2023-05-13T13:53:14;7.53;58.40
74540;SHT31;66042;51.090;-115.340;2023-05-13T13:55:41;7.54;58.46
74540;SHT31;66042;51.090;-115.340;2023-05-13T13:58:08;7.56;58.51
74540;SHT31;66042;51.090;-115.340;2023-05-13T14:00:35;7.59;58.50
74540;SHT31;66042;51.090;-115.340;2023-05-13T14:03:02;7.63;58.50
74540;SHT31;66042;51.090;-115.340;2023-05-13T14:05:29;7.66;58.50
74540;SHT31;66042;51.090;-115.340;2023-05-13T14:07:56;7.70;58.37
74540;SHT31;66042;51.090;-115.340;2023-05-13T14:10:23;7.74;58.59
74540;SHT31;66042;51.090;-115.340;2023-05-13T14:12:50;7.76;58.57
74540;SHT31;66042;51.090;-115.340;2023-05-13T14:15:17;7.71;58.57
74540;SHT31;66042;51.090;-115.340;2023-05-13T14:17:44;7.62;58.82
74540;SHT31;66042;51.090;-115.340;2023-05-13T14:20:11;7.55;59.10
74540;SHT31;66042;51.090;-115.340;2023-05-13T14:22:38;7.54;59.25
74540;SHT31;66042;51.090;-115.340;2023-05-13T14:25:05;7.56;58.94
74540;SHT31;66042;51.090;-115.340;2023-05-13T14:27:33;7.61;59.12
74540;SHT31;66042;51.090;-115.340;2023-05-13T14:30:01;7.66;59.03
74540;SHT31;66042;51.090;-115.340;2023-05-13T14:32:28;7.74;58.94
74540;SHT31;66042;51.090;-115.340;2023-05-13T14:34:55;7.80;58.93
74540;SHT31;66042;51.090;-115.340;2023-05-13T14:37:22;7.86;59.06
74540;SHT31;66042;51.090;-115.340;2023-05-13T14:39:49;7.95;58.72
74540;SHT31;66042;51.090;-115.340;2023-05-13T14:42:16;8.02;58.75
74540;SHT31;66042;51.090;-115.340;2023-05-13T14:44:43;8.08;58.75
74540;SHT31;66042;51.090;-115.340;2023-05-13T14:47:11;8.15;58.61
74540;SHT31;66042;51.090;-115.340;2023-05-13T14:49:38;8.23;58.29
74540;SHT31;66042;51.090;-115.340;2023-05-13T14:52:06;8.31;58.24
74540;SHT31;66042;51.090;-115.340;2023-05-13T14:54:32;8.39;58.17
74540;SHT31;66042;51.090;-115.340;2023-05-13T14:57:02;8.47;58.07
74540;SHT31;66042;51.090;-115.340;2023-05-13T14:59:32;8.54;58.00
74540;SHT31;66042;51.090;-115.340;2023-05-13T15:02:01;8.61;58.39
74540;SHT31;66042;51.090;-115.340;2023-05-13T15:04:29;8.68;58.34
74540;SHT31;66042;51.090;-115.340;2023-05-13T15:06:56;8.75;58.30
74540;SHT31;66042;51.090;-115.340;2023-05-13T15:09:24;8.82;58.23
74540;SHT31;66042;51.090;-115.340;2023-05-13T15:11:50;8.87;58.01
74540;SHT31;66042;51.090;-115.340;2023-05-13T15:14:17;8.95;58.16
74540;SHT31;66042;51.090;-115.340;2023-05-13T15:16:46;9.02;58.08
74540;SHT31;66042;51.090;-115.340;2023-05-13T15:19:13;9.10;57.96
74540;SHT31;66042;51.090;-115.340;2023-05-13T15:21:40;9.16;57.84
74540;SHT31;66042;51.090;-115.340;2023-05-13T15:24:07;9.24;57.95
74540;SHT31;66042;51.090;-115.340;2023-05-13T15:26:34;9.34;57.78
74540;SHT31;66042;51.090;-115.340;2023-05-13T15:29:01;9.40;57.60